New Florence, Pennsylvania
Current Conditions -  °F | °C
As of 7:54 PM on Wednesday 22 Oct 2014 (Local Time) from KJST Reporting Station
Overcast Overcast  
Wind Chill: 36°   Ceiling: 1000
Heat Index: 43°   Visibility: 10mi
Dew Point: 38°   Wind: 15mph
Humidity: 82%   Direction: 330°NNW
Pressure: 30.1"   Gusts: 21mph
Location:  40.38°N, 79.08°W
Report Text: KJST 222354Z AUTO 33013G18KT 10SM OVC010 06/03 A3010 RMK AO2 SLP203 T00610033 10072 20061 53004
Loading
Personal Weather Stations






























Interactive Weather Map
Tropical Storm Tracking
New forecast layout! Learn more

10-Day Weather Forecast

Advertisements
Track Severe Weather on mobile